^^
Station Historical Data
 
Daily Summary for August 23, 2014 Units:  English    Metric   Both
« Previous Day
Next Day »
Daily Weekly Monthly Yearly Custom
  Current: High: Low: Average:
Temperature: 77.5 °F 77.5 °F 72.6 °F 74.2 °F
Dew Point: 74.0 °F 74.0 °F 71.4 °F 72.5 °F
Humidity: 89% 97% 89% 95%
Wind Speed: 0.0mph 2.0mph 0.0mph 1.1mph
Wind Gust: 3.0mph 4.0mph - -
WindCalm - - SSW
Pressure: 29.99 in 29.99 in 29.96 in -
Precipitation: 0.00 in      
Historical Graphs
 
 
Tabular Data for August 23, 2014
Time Temperature Dew Point Pressure Wind Wind Speed Wind Gust Humidity Rainfall Rate (Hourly)
00:09 76.0 °F 73.5 °F 29.98 in Calm     92% 0.00 in
00:19 75.9 °F 73.7 °F 29.97 in Calm     93% 0.00 in
00:29 75.8 °F 73.6 °F 29.97 in Calm     93% 0.00 in
00:39 75.7 °F 73.5 °F 29.97 in Calm   1.0 mph 93% 0.00 in
00:49 75.6 °F 73.4 °F 29.97 in Calm   1.0 mph 93% 0.00 in
00:59 75.5 °F 73.3 °F 29.97 in Calm   1.0 mph 93% 0.00 in
01:09 75.3 °F 73.1 °F 29.97 in Calm     93% 0.00 in
01:19 75.3 °F 73.1 °F 29.97 in NE 1.0 mph 2.0 mph 93% 0.00 in
01:29 75.4 °F 73.2 °F 29.96 in NE 1.0 mph 2.0 mph 93% 0.00 in
01:39 75.3 °F 73.2 °F 29.97 in Calm   2.0 mph 93% 0.00 in
01:49 75.1 °F 72.9 °F 29.97 in Calm     93% 0.00 in
01:59 74.9 °F 72.8 °F 29.96 in Calm     93% 0.00 in
02:09 74.7 °F 72.9 °F 29.96 in Calm     94% 0.00 in
02:19 74.7 °F 72.8 °F 29.97 in Calm   2.0 mph 94% 0.00 in
02:29 74.4 °F 72.6 °F 29.97 in Calm   1.0 mph 94% 0.00 in
02:39 74.4 °F 72.5 °F 29.97 in Calm     94% 0.00 in
02:49 74.2 °F 72.7 °F 29.97 in Calm     95% 0.00 in
02:59 74.1 °F 72.2 °F 29.97 in Calm     94% 0.00 in
03:09 74.0 °F 72.5 °F 29.97 in Calm     95% 0.00 in
03:19 73.7 °F 72.2 °F 29.97 in Calm     95% 0.00 in
03:29 73.6 °F 72.1 °F 29.97 in Calm     95% 0.00 in
03:39 73.5 °F 72.0 °F 29.97 in Calm     95% 0.00 in
03:49 73.3 °F 71.8 °F 29.97 in Calm   1.0 mph 95% 0.00 in
03:59 73.2 °F 72.0 °F 29.97 in Calm     96% 0.00 in
04:09 73.0 °F 71.8 °F 29.96 in Calm     96% 0.00 in
04:19 73.0 °F 71.8 °F 29.96 in Calm     96% 0.00 in
04:29 73.0 °F 71.8 °F 29.97 in Calm     96% 0.00 in
04:39 72.8 °F 71.6 °F 29.97 in Calm     96% 0.00 in
04:49 72.7 °F 71.5 °F 29.97 in Calm     96% 0.00 in
04:59 72.6 °F 71.4 °F 29.97 in Calm     96% 0.00 in
05:09 72.6 °F 71.4 °F 29.97 in Calm     96% 0.00 in
05:19 72.6 °F 71.4 °F 29.97 in Calm   1.0 mph 96% 0.00 in
05:29 72.6 °F 71.4 °F 29.97 in Calm   1.0 mph 96% 0.00 in
05:39 72.7 °F 71.5 °F 29.97 in Calm   1.0 mph 96% 0.00 in
05:49 72.8 °F 71.9 °F 29.97 in Calm   2.0 mph 97% 0.00 in
05:59 73.0 °F 72.1 °F 29.97 in NE 1.0 mph 3.0 mph 97% 0.00 in
06:09 73.2 °F 72.3 °F 29.97 in Calm   3.0 mph 97% 0.00 in
06:19 73.3 °F 72.4 °F 29.97 in Calm   3.0 mph 97% 0.00 in
06:29 73.3 °F 72.1 °F 29.97 in Calm   2.0 mph 96% 0.00 in
06:39 73.4 °F 72.2 °F 29.97 in Calm   2.0 mph 96% 0.00 in
06:49 73.6 °F 72.4 °F 29.97 in NNW 1.0 mph 2.0 mph 96% 0.00 in
06:59 73.7 °F 72.5 °F 29.98 in Calm   1.0 mph 96% 0.00 in
07:09 73.9 °F 72.7 °F 29.98 in Calm   2.0 mph 96% 0.00 in
07:19 74.1 °F 72.9 °F 29.98 in Calm   3.0 mph 96% 0.00 in
07:29 74.3 °F 73.1 °F 29.99 in NW 1.0 mph 3.0 mph 96% 0.00 in
07:39 74.7 °F 73.1 °F 29.99 in Calm   3.0 mph 95% 0.00 in
07:49 74.9 °F 73.1 °F 29.99 in NW 2.0 mph 4.0 mph 94% 0.00 in
07:59 75.4 °F 73.2 °F 29.99 in WNW 1.0 mph 4.0 mph 93% 0.00 in
08:09 76.1 °F 73.7 °F 29.98 in Calm   2.0 mph 92% 0.00 in
08:19 77.5 °F 74.0 °F 29.99 in Calm   3.0 mph 89% 0.00 in
jolietwx - Weather
Compliments of Weather Underground